sensor_id;sensor_type;location;lat;lon;timestamp;P1;durP1;ratioP1;P2;durP2;ratioP2
795;SDS011;381;48.770;9.188;2022-07-01T00:02:01;6.97;;;6.60;;
795;SDS011;381;48.770;9.188;2022-07-01T00:07:04;7.07;;;6.60;;
795;SDS011;381;48.770;9.188;2022-07-01T00:12:08;6.77;;;6.47;;
795;SDS011;381;48.770;9.188;2022-07-01T00:17:10;6.30;;;6.00;;
795;SDS011;381;48.770;9.188;2022-07-01T00:22:12;6.60;;;6.20;;
795;SDS011;381;48.770;9.188;2022-07-01T00:27:16;6.70;;;6.30;;
795;SDS011;381;48.770;9.188;2022-07-01T00:32:18;6.00;;;5.80;;
795;SDS011;381;48.770;9.188;2022-07-01T00:37:20;6.90;;;6.50;;
795;SDS011;381;48.770;9.188;2022-07-01T00:42:23;6.93;;;6.40;;
795;SDS011;381;48.770;9.188;2022-07-01T00:47:25;6.30;;;6.00;;
795;SDS011;381;48.770;9.188;2022-07-01T00:52:27;6.53;;;6.23;;
795;SDS011;381;48.770;9.188;2022-07-01T00:57:31;6.10;;;5.80;;
795;SDS011;381;48.770;9.188;2022-07-01T01:02:34;5.80;;;5.60;;
795;SDS011;381;48.770;9.188;2022-07-01T01:07:37;6.50;;;6.30;;
795;SDS011;381;48.770;9.188;2022-07-01T01:12:40;6.60;;;6.40;;
795;SDS011;381;48.770;9.188;2022-07-01T01:17:43;6.03;;;5.83;;
795;SDS011;381;48.770;9.188;2022-07-01T01:22:48;6.27;;;5.77;;
795;SDS011;381;48.770;9.188;2022-07-01T01:27:50;5.90;;;5.50;;
795;SDS011;381;48.770;9.188;2022-07-01T01:32:52;4.93;;;4.70;;
795;SDS011;381;48.770;9.188;2022-07-01T01:37:56;4.83;;;4.63;;
795;SDS011;381;48.770;9.188;2022-07-01T01:42:58;5.20;;;4.90;;
795;SDS011;381;48.770;9.188;2022-07-01T01:48:01;4.63;;;4.43;;
795;SDS011;381;48.770;9.188;2022-07-01T01:53:04;4.67;;;4.47;;
795;SDS011;381;48.770;9.188;2022-07-01T01:58:06;4.50;;;4.30;;
795;SDS011;381;48.770;9.188;2022-07-01T02:03:08;4.80;;;4.60;;
795;SDS011;381;48.770;9.188;2022-07-01T02:08:12;4.60;;;4.40;;
795;SDS011;381;48.770;9.188;2022-07-01T02:13:14;4.63;;;4.43;;
795;SDS011;381;48.770;9.188;2022-07-01T02:18:16;4.50;;;4.30;;
795;SDS011;381;48.770;9.188;2022-07-01T02:23:20;4.53;;;4.33;;
795;SDS011;381;48.770;9.188;2022-07-01T02:28:23;4.53;;;4.33;;
795;SDS011;381;48.770;9.188;2022-07-01T02:33:25;4.27;;;4.07;;
795;SDS011;381;48.770;9.188;2022-07-01T02:38:28;4.17;;;3.90;;
795;SDS011;381;48.770;9.188;2022-07-01T02:43:31;4.40;;;4.10;;
795;SDS011;381;48.770;9.188;2022-07-01T02:48:33;4.67;;;4.47;;
795;SDS011;381;48.770;9.188;2022-07-01T02:53:36;4.50;;;4.30;;
795;SDS011;381;48.770;9.188;2022-07-01T02:58:38;4.37;;;4.17;;
795;SDS011;381;48.770;9.188;2022-07-01T03:03:41;5.43;;;5.13;;
795;SDS011;381;48.770;9.188;2022-07-01T03:08:44;5.40;;;5.10;;
795;SDS011;381;48.770;9.188;2022-07-01T03:13:46;6.63;;;6.23;;
795;SDS011;381;48.770;9.188;2022-07-01T03:18:49;5.70;;;5.17;;
795;SDS011;381;48.770;9.188;2022-07-01T03:23:52;6.20;;;5.90;;
795;SDS011;381;48.770;9.188;2022-07-01T03:28:54;5.20;;;4.90;;
795;SDS011;381;48.770;9.188;2022-07-01T03:33:56;6.23;;;5.90;;
795;SDS011;381;48.770;9.188;2022-07-01T03:39:00;3.53;;;3.33;;
795;SDS011;381;48.770;9.188;2022-07-01T03:44:03;5.30;;;5.10;;
795;SDS011;381;48.770;9.188;2022-07-01T03:49:06;5.07;;;4.87;;
795;SDS011;381;48.770;9.188;2022-07-01T03:54:10;4.10;;;3.90;;
795;SDS011;381;48.770;9.188;2022-07-01T03:59:30;4.50;;;4.30;;
795;SDS011;381;48.770;9.188;2022-07-01T04:04:34;4.63;;;4.43;;
795;SDS011;381;48.770;9.188;2022-07-01T04:09:38;5.83;;;5.43;;
795;SDS011;381;48.770;9.188;2022-07-01T04:14:40;7.50;;;7.10;;
795;SDS011;381;48.770;9.188;2022-07-01T04:19:42;8.50;;;8.10;;
795;SDS011;381;48.770;9.188;2022-07-01T04:24:45;5.83;;;5.53;;
795;SDS011;381;48.770;9.188;2022-07-01T04:29:47;7.37;;;7.03;;
795;SDS011;381;48.770;9.188;2022-07-01T04:34:49;8.00;;;7.70;;
795;SDS011;381;48.770;9.188;2022-07-01T04:39:53;7.13;;;6.73;;
795;SDS011;381;48.770;9.188;2022-07-01T04:44:55;6.73;;;6.43;;
795;SDS011;381;48.770;9.188;2022-07-01T04:49:57;6.63;;;6.37;;
795;SDS011;381;48.770;9.188;2022-07-01T04:55:03;6.10;;;5.90;;
795;SDS011;381;48.770;9.188;2022-07-01T05:00:08;6.80;;;6.40;;
795;SDS011;381;48.770;9.188;2022-07-01T05:05:11;4.87;;;4.67;;
795;SDS011;381;48.770;9.188;2022-07-01T05:10:14;6.37;;;6.17;;
795;SDS011;381;48.770;9.188;2022-07-01T05:15:16;6.70;;;6.40;;
795;SDS011;381;48.770;9.188;2022-07-01T05:20:18;6.87;;;6.57;;
795;SDS011;381;48.770;9.188;2022-07-01T05:25:40;5.90;;;5.60;;
795;SDS011;381;48.770;9.188;2022-07-01T05:30:42;7.60;;;7.30;;
795;SDS011;381;48.770;9.188;2022-07-01T05:35:44;7.10;;;6.80;;
795;SDS011;381;48.770;9.188;2022-07-01T05:40:47;7.17;;;6.87;;
795;SDS011;381;48.770;9.188;2022-07-01T05:45:49;7.60;;;6.90;;
795;SDS011;381;48.770;9.188;2022-07-01T05:50:51;8.00;;;7.50;;
795;SDS011;381;48.770;9.188;2022-07-01T05:55:55;8.17;;;7.57;;
795;SDS011;381;48.770;9.188;2022-07-01T06:00:57;8.90;;;8.23;;
795;SDS011;381;48.770;9.188;2022-07-01T06:05:59;8.70;;;8.10;;
795;SDS011;381;48.770;9.188;2022-07-01T06:11:02;6.87;;;6.27;;
795;SDS011;381;48.770;9.188;2022-07-01T06:16:05;7.60;;;7.20;;
795;SDS011;381;48.770;9.188;2022-07-01T06:21:07;9.43;;;8.90;;
795;SDS011;381;48.770;9.188;2022-07-01T06:26:11;8.93;;;8.43;;
795;SDS011;381;48.770;9.188;2022-07-01T06:31:13;9.20;;;8.60;;
795;SDS011;381;48.770;9.188;2022-07-01T06:36:16;8.10;;;7.43;;
795;SDS011;381;48.770;9.188;2022-07-01T06:41:19;9.70;;;8.67;;
795;SDS011;381;48.770;9.188;2022-07-01T06:46:30;7.97;;;7.47;;
795;SDS011;381;48.770;9.188;2022-07-01T06:51:33;6.67;;;6.27;;
795;SDS011;381;48.770;9.188;2022-07-01T06:56:36;7.50;;;6.90;;
795;SDS011;381;48.770;9.188;2022-07-01T07:01:38;7.57;;;6.90;;
795;SDS011;381;48.770;9.188;2022-07-01T07:06:40;7.17;;;6.77;;
795;SDS011;381;48.770;9.188;2022-07-01T07:11:44;8.17;;;7.77;;
795;SDS011;381;48.770;9.188;2022-07-01T07:16:46;6.70;;;6.30;;
795;SDS011;381;48.770;9.188;2022-07-01T07:21:48;6.80;;;6.50;;
795;SDS011;381;48.770;9.188;2022-07-01T07:26:52;7.47;;;7.07;;
795;SDS011;381;48.770;9.188;2022-07-01T07:31:54;6.73;;;6.43;;
795;SDS011;381;48.770;9.188;2022-07-01T07:36:56;5.70;;;5.40;;
795;SDS011;381;48.770;9.188;2022-07-01T07:42:00;7.17;;;6.67;;
795;SDS011;381;48.770;9.188;2022-07-01T07:47:02;5.83;;;5.23;;
795;SDS011;381;48.770;9.188;2022-07-01T07:52:05;7.43;;;7.03;;
795;SDS011;381;48.770;9.188;2022-07-01T07:57:09;6.03;;;5.73;;
795;SDS011;381;48.770;9.188;2022-07-01T08:02:12;7.80;;;7.30;;
795;SDS011;381;48.770;9.188;2022-07-01T08:07:14;7.00;;;6.63;;
795;SDS011;381;48.770;9.188;2022-07-01T08:12:17;7.67;;;7.23;;
795;SDS011;381;48.770;9.188;2022-07-01T08:17:19;6.90;;;6.50;;
795;SDS011;381;48.770;9.188;2022-07-01T08:22:22;5.93;;;5.20;;
795;SDS011;381;48.770;9.188;2022-07-01T08:27:25;5.80;;;5.40;;
795;SDS011;381;48.770;9.188;2022-07-01T08:32:28;4.87;;;4.67;;
795;SDS011;381;48.770;9.188;2022-07-01T08:37:31;6.60;;;6.13;;
795;SDS011;381;48.770;9.188;2022-07-01T08:42:34;4.87;;;4.67;;
795;SDS011;381;48.770;9.188;2022-07-01T08:47:48;4.80;;;4.30;;
795;SDS011;381;48.770;9.188;2022-07-01T08:52:51;5.57;;;4.90;;
795;SDS011;381;48.770;9.188;2022-07-01T08:57:55;5.90;;;5.60;;
795;SDS011;381;48.770;9.188;2022-07-01T09:02:58;4.83;;;4.63;;
795;SDS011;381;48.770;9.188;2022-07-01T09:08:02;6.07;;;5.77;;
795;SDS011;381;48.770;9.188;2022-07-01T09:13:07;5.33;;;5.10;;
795;SDS011;381;48.770;9.188;2022-07-01T09:18:11;6.60;;;6.10;;
795;SDS011;381;48.770;9.188;2022-07-01T09:23:15;6.90;;;6.50;;
795;SDS011;381;48.770;9.188;2022-07-01T09:28:20;5.40;;;5.20;;
795;SDS011;381;48.770;9.188;2022-07-01T09:33:24;7.43;;;7.00;;
795;SDS011;381;48.770;9.188;2022-07-01T09:38:27;7.53;;;7.10;;
795;SDS011;381;48.770;9.188;2022-07-01T09:43:31;8.50;;;7.90;;
795;SDS011;381;48.770;9.188;2022-07-01T09:48:44;5.77;;;5.47;;
795;SDS011;381;48.770;9.188;2022-07-01T09:53:47;7.77;;;7.30;;
795;SDS011;381;48.770;9.188;2022-07-01T09:58:50;8.23;;;7.63;;
795;SDS011;381;48.770;9.188;2022-07-01T10:03:53;7.10;;;6.70;;
795;SDS011;381;48.770;9.188;2022-07-01T10:09:00;6.37;;;6.07;;
795;SDS011;381;48.770;9.188;2022-07-01T10:14:13;6.23;;;5.90;;
795;SDS011;381;48.770;9.188;2022-07-01T10:19:26;8.30;;;7.90;;
795;SDS011;381;48.770;9.188;2022-07-01T10:24:29;6.73;;;6.33;;
795;SDS011;381;48.770;9.188;2022-07-01T10:29:33;7.60;;;7.20;;
795;SDS011;381;48.770;9.188;2022-07-01T10:34:42;7.33;;;6.93;;
795;SDS011;381;48.770;9.188;2022-07-01T10:45:10;6.80;;;6.50;;
795;SDS011;381;48.770;9.188;2022-07-01T10:50:13;5.97;;;5.67;;
795;SDS011;381;48.770;9.188;2022-07-01T10:55:16;5.73;;;5.33;;
795;SDS011;381;48.770;9.188;2022-07-01T11:00:25;5.50;;;5.20;;
795;SDS011;381;48.770;9.188;2022-07-01T11:05:32;4.50;;;4.20;;
795;SDS011;381;48.770;9.188;2022-07-01T11:10:36;5.17;;;4.87;;
795;SDS011;381;48.770;9.188;2022-07-01T11:15:40;5.10;;;4.80;;
795;SDS011;381;48.770;9.188;2022-07-01T11:20:45;4.30;;;4.10;;
795;SDS011;381;48.770;9.188;2022-07-01T11:25:47;4.83;;;4.40;;
795;SDS011;381;48.770;9.188;2022-07-01T11:30:58;11.37;;;10.43;;
795;SDS011;381;48.770;9.188;2022-07-01T11:36:01;4.40;;;4.20;;
795;SDS011;381;48.770;9.188;2022-07-01T11:41:22;4.17;;;3.97;;
795;SDS011;381;48.770;9.188;2022-07-01T11:46:27;3.70;;;3.50;;
795;SDS011;381;48.770;9.188;2022-07-01T11:51:29;3.53;;;3.33;;
795;SDS011;381;48.770;9.188;2022-07-01T11:56:32;3.00;;;2.90;;
795;SDS011;381;48.770;9.188;2022-07-01T12:01:37;3.03;;;2.93;;
795;SDS011;381;48.770;9.188;2022-07-01T12:06:39;2.57;;;2.43;;
795;SDS011;381;48.770;9.188;2022-07-01T12:11:46;3.00;;;2.90;;
795;SDS011;381;48.770;9.188;2022-07-01T12:16:52;2.40;;;2.30;;
795;SDS011;381;48.770;9.188;2022-07-01T12:21:55;2.63;;;2.40;;
795;SDS011;381;48.770;9.188;2022-07-01T12:27:01;2.00;;;1.90;;
795;SDS011;381;48.770;9.188;2022-07-01T12:32:07;2.00;;;1.90;;
795;SDS011;381;48.770;9.188;2022-07-01T12:37:12;1.60;;;1.50;;
795;SDS011;381;48.770;9.188;2022-07-01T12:42:22;1.93;;;1.83;;
795;SDS011;381;48.770;9.188;2022-07-01T12:47:28;1.83;;;1.70;;
795;SDS011;381;48.770;9.188;2022-07-01T12:52:31;2.20;;;2.10;;
795;SDS011;381;48.770;9.188;2022-07-01T12:57:33;2.47;;;2.27;;
795;SDS011;381;48.770;9.188;2022-07-01T13:02:36;3.13;;;2.73;;
795;SDS011;381;48.770;9.188;2022-07-01T13:07:39;3.13;;;3.00;;
795;SDS011;381;48.770;9.188;2022-07-01T13:12:41;2.93;;;2.73;;
795;SDS011;381;48.770;9.188;2022-07-01T13:17:46;4.17;;;3.57;;
795;SDS011;381;48.770;9.188;2022-07-01T13:22:48;3.20;;;2.93;;
795;SDS011;381;48.770;9.188;2022-07-01T13:27:51;2.63;;;2.53;;
795;SDS011;381;48.770;9.188;2022-07-01T13:32:54;2.50;;;2.30;;
795;SDS011;381;48.770;9.188;2022-07-01T13:37:56;3.07;;;2.90;;
795;SDS011;381;48.770;9.188;2022-07-01T13:42:58;2.60;;;2.40;;
795;SDS011;381;48.770;9.188;2022-07-01T13:48:02;3.40;;;2.70;;
795;SDS011;381;48.770;9.188;2022-07-01T13:53:04;2.57;;;2.43;;
795;SDS011;381;48.770;9.188;2022-07-01T13:58:07;2.10;;;2.00;;
795;SDS011;381;48.770;9.188;2022-07-01T14:03:12;3.10;;;2.60;;
795;SDS011;381;48.770;9.188;2022-07-01T14:08:14;2.20;;;2.10;;
795;SDS011;381;48.770;9.188;2022-07-01T14:13:16;2.17;;;2.07;;
795;SDS011;381;48.770;9.188;2022-07-01T14:18:22;1.87;;;1.77;;
795;SDS011;381;48.770;9.188;2022-07-01T14:23:24;1.90;;;1.80;;
795;SDS011;381;48.770;9.188;2022-07-01T14:28:26;2.20;;;2.10;;
795;SDS011;381;48.770;9.188;2022-07-01T14:33:30;2.97;;;2.10;;
795;SDS011;381;48.770;9.188;2022-07-01T14:38:32;2.17;;;2.03;;
795;SDS011;381;48.770;9.188;2022-07-01T14:43:34;3.93;;;2.80;;
795;SDS011;381;48.770;9.188;2022-07-01T14:48:38;2.03;;;1.93;;
795;SDS011;381;48.770;9.188;2022-07-01T14:53:40;2.30;;;2.20;;
795;SDS011;381;48.770;9.188;2022-07-01T14:58:42;1.63;;;1.53;;
795;SDS011;381;48.770;9.188;2022-07-01T15:03:45;2.30;;;2.10;;
795;SDS011;381;48.770;9.188;2022-07-01T15:08:50;1.30;;;1.20;;
795;SDS011;381;48.770;9.188;2022-07-01T15:13:53;2.00;;;1.90;;
795;SDS011;381;48.770;9.188;2022-07-01T15:18:59;2.30;;;1.87;;
795;SDS011;381;48.770;9.188;2022-07-01T15:24:01;1.93;;;1.83;;
795;SDS011;381;48.770;9.188;2022-07-01T15:29:04;2.33;;;2.23;;
795;SDS011;381;48.770;9.188;2022-07-01T15:34:07;2.43;;;2.23;;
795;SDS011;381;48.770;9.188;2022-07-01T15:39:11;1.40;;;1.30;;
795;SDS011;381;48.770;9.188;2022-07-01T15:44:13;2.13;;;2.03;;
795;SDS011;381;48.770;9.188;2022-07-01T15:49:17;1.40;;;1.30;;
795;SDS011;381;48.770;9.188;2022-07-01T15:54:19;1.50;;;1.40;;
795;SDS011;381;48.770;9.188;2022-07-01T15:59:21;1.70;;;1.60;;
795;SDS011;381;48.770;9.188;2022-07-01T16:04:27;1.70;;;1.60;;
795;SDS011;381;48.770;9.188;2022-07-01T16:09:37;1.27;;;1.20;;
795;SDS011;381;48.770;9.188;2022-07-01T16:14:43;1.80;;;1.70;;
795;SDS011;381;48.770;9.188;2022-07-01T16:19:48;3.23;;;2.07;;
795;SDS011;381;48.770;9.188;2022-07-01T16:24:54;1.90;;;1.80;;
795;SDS011;381;48.770;9.188;2022-07-01T16:29:56;1.83;;;1.73;;
795;SDS011;381;48.770;9.188;2022-07-01T16:35:00;2.10;;;2.00;;
795;SDS011;381;48.770;9.188;2022-07-01T16:40:03;4.20;;;2.53;;
795;SDS011;381;48.770;9.188;2022-07-01T16:45:10;1.93;;;1.83;;
795;SDS011;381;48.770;9.188;2022-07-01T16:50:14;1.93;;;1.83;;
795;SDS011;381;48.770;9.188;2022-07-01T16:55:17;2.10;;;2.00;;
795;SDS011;381;48.770;9.188;2022-07-01T17:00:24;1.80;;;1.70;;
795;SDS011;381;48.770;9.188;2022-07-01T17:05:28;1.33;;;1.23;;
795;SDS011;381;48.770;9.188;2022-07-01T17:10:31;1.70;;;1.60;;
795;SDS011;381;48.770;9.188;2022-07-01T17:15:34;1.80;;;1.67;;
795;SDS011;381;48.770;9.188;2022-07-01T17:20:38;2.17;;;1.93;;
795;SDS011;381;48.770;9.188;2022-07-01T17:25:46;1.90;;;1.80;;
795;SDS011;381;48.770;9.188;2022-07-01T17:30:51;1.90;;;1.80;;
795;SDS011;381;48.770;9.188;2022-07-01T17:36:01;1.67;;;1.57;;
795;SDS011;381;48.770;9.188;2022-07-01T17:41:03;1.90;;;1.80;;
795;SDS011;381;48.770;9.188;2022-07-01T17:46:08;3.07;;;2.37;;
795;SDS011;381;48.770;9.188;2022-07-01T17:51:13;2.53;;;2.33;;
795;SDS011;381;48.770;9.188;2022-07-01T17:56:16;2.13;;;2.03;;
795;SDS011;381;48.770;9.188;2022-07-01T18:01:19;2.43;;;2.30;;
795;SDS011;381;48.770;9.188;2022-07-01T18:06:24;1.93;;;1.73;;
795;SDS011;381;48.770;9.188;2022-07-01T18:11:30;3.10;;;2.90;;
795;SDS011;381;48.770;9.188;2022-07-01T18:16:47;2.10;;;1.90;;
795;SDS011;381;48.770;9.188;2022-07-01T18:21:59;3.07;;;2.87;;
795;SDS011;381;48.770;9.188;2022-07-01T18:27:04;2.80;;;2.30;;
795;SDS011;381;48.770;9.188;2022-07-01T18:32:10;3.00;;;2.50;;
795;SDS011;381;48.770;9.188;2022-07-01T18:37:14;2.30;;;2.20;;
795;SDS011;381;48.770;9.188;2022-07-01T18:42:18;2.60;;;2.40;;
795;SDS011;381;48.770;9.188;2022-07-01T18:47:20;2.30;;;2.10;;
795;SDS011;381;48.770;9.188;2022-07-01T18:58:04;2.00;;;1.90;;
795;SDS011;381;48.770;9.188;2022-07-01T19:03:06;2.53;;;2.43;;
795;SDS011;381;48.770;9.188;2022-07-01T19:08:09;2.20;;;1.90;;
795;SDS011;381;48.770;9.188;2022-07-01T19:13:11;2.83;;;2.50;;
795;SDS011;381;48.770;9.188;2022-07-01T19:18:13;3.53;;;1.80;;
795;SDS011;381;48.770;9.188;2022-07-01T19:23:17;2.70;;;2.60;;
795;SDS011;381;48.770;9.188;2022-07-01T19:28:19;2.43;;;2.33;;
795;SDS011;381;48.770;9.188;2022-07-01T19:33:21;2.00;;;1.90;;
795;SDS011;381;48.770;9.188;2022-07-01T19:38:25;2.70;;;2.50;;
795;SDS011;381;48.770;9.188;2022-07-01T19:43:27;1.53;;;1.43;;
795;SDS011;381;48.770;9.188;2022-07-01T19:48:29;2.20;;;1.70;;
795;SDS011;381;48.770;9.188;2022-07-01T19:53:33;2.37;;;2.27;;
795;SDS011;381;48.770;9.188;2022-07-01T19:58:35;3.07;;;2.20;;
795;SDS011;381;48.770;9.188;2022-07-01T20:03:37;2.20;;;2.10;;
795;SDS011;381;48.770;9.188;2022-07-01T20:08:41;2.20;;;1.90;;
795;SDS011;381;48.770;9.188;2022-07-01T20:13:43;2.07;;;1.90;;
795;SDS011;381;48.770;9.188;2022-07-01T20:18:45;2.67;;;2.40;;
795;SDS011;381;48.770;9.188;2022-07-01T20:23:49;2.60;;;2.50;;
795;SDS011;381;48.770;9.188;2022-07-01T20:28:51;2.50;;;2.30;;
795;SDS011;381;48.770;9.188;2022-07-01T20:33:53;2.40;;;2.20;;
795;SDS011;381;48.770;9.188;2022-07-01T20:38:58;2.70;;;2.50;;
795;SDS011;381;48.770;9.188;2022-07-01T20:44:00;2.30;;;2.20;;
795;SDS011;381;48.770;9.188;2022-07-01T20:49:02;3.27;;;2.77;;
795;SDS011;381;48.770;9.188;2022-07-01T20:54:06;3.10;;;2.80;;
795;SDS011;381;48.770;9.188;2022-07-01T20:59:08;4.73;;;3.10;;
795;SDS011;381;48.770;9.188;2022-07-01T21:04:10;3.47;;;3.27;;
795;SDS011;381;48.770;9.188;2022-07-01T21:09:14;2.60;;;2.40;;
795;SDS011;381;48.770;9.188;2022-07-01T21:14:16;2.60;;;2.50;;
795;SDS011;381;48.770;9.188;2022-07-01T21:19:18;2.60;;;2.50;;
795;SDS011;381;48.770;9.188;2022-07-01T21:24:21;2.80;;;2.70;;
795;SDS011;381;48.770;9.188;2022-07-01T21:29:23;2.77;;;2.67;;
795;SDS011;381;48.770;9.188;2022-07-01T21:34:26;2.87;;;2.67;;
795;SDS011;381;48.770;9.188;2022-07-01T21:39:30;3.00;;;2.87;;
795;SDS011;381;48.770;9.188;2022-07-01T21:44:33;3.97;;;2.80;;
795;SDS011;381;48.770;9.188;2022-07-01T21:49:36;4.23;;;3.03;;
795;SDS011;381;48.770;9.188;2022-07-01T21:54:41;2.90;;;2.80;;
795;SDS011;381;48.770;9.188;2022-07-01T21:59:44;3.10;;;3.00;;
795;SDS011;381;48.770;9.188;2022-07-01T22:04:51;2.70;;;2.60;;
795;SDS011;381;48.770;9.188;2022-07-01T22:09:56;3.57;;;3.37;;
795;SDS011;381;48.770;9.188;2022-07-01T22:15:04;3.37;;;3.17;;
795;SDS011;381;48.770;9.188;2022-07-01T22:20:08;3.10;;;2.90;;
795;SDS011;381;48.770;9.188;2022-07-01T22:25:14;3.20;;;3.00;;
795;SDS011;381;48.770;9.188;2022-07-01T22:30:19;2.67;;;2.47;;
795;SDS011;381;48.770;9.188;2022-07-01T22:35:22;3.17;;;2.97;;
795;SDS011;381;48.770;9.188;2022-07-01T22:40:27;2.80;;;2.70;;
795;SDS011;381;48.770;9.188;2022-07-01T22:45:35;3.60;;;3.40;;
795;SDS011;381;48.770;9.188;2022-07-01T22:50:46;3.53;;;3.27;;
795;SDS011;381;48.770;9.188;2022-07-01T22:55:55;3.87;;;3.67;;
795;SDS011;381;48.770;9.188;2022-07-01T23:01:02;3.33;;;3.17;;
795;SDS011;381;48.770;9.188;2022-07-01T23:06:05;3.40;;;3.20;;
795;SDS011;381;48.770;9.188;2022-07-01T23:11:16;3.57;;;3.37;;
795;SDS011;381;48.770;9.188;2022-07-01T23:16:19;4.33;;;4.07;;
795;SDS011;381;48.770;9.188;2022-07-01T23:21:30;4.53;;;4.23;;
795;SDS011;381;48.770;9.188;2022-07-01T23:26:33;3.77;;;3.47;;
795;SDS011;381;48.770;9.188;2022-07-01T23:31:38;3.17;;;2.97;;
795;SDS011;381;48.770;9.188;2022-07-01T23:36:43;3.40;;;3.20;;
795;SDS011;381;48.770;9.188;2022-07-01T23:41:46;3.60;;;3.40;;
795;SDS011;381;48.770;9.188;2022-07-01T23:46:49;3.10;;;3.00;;
795;SDS011;381;48.770;9.188;2022-07-01T23:51:51;3.10;;;3.00;;
795;SDS011;381;48.770;9.188;2022-07-01T23:56:54;3.17;;;3.03;;
